sensor_id;sensor_type;location;lat;lon;timestamp;P1;durP1;ratioP1;P2;durP2;ratioP2
20639;SDS011;10479;53.524;9.846;2022-09-09T00:00:55;158.20;;;46.55;;
20639;SDS011;10479;53.524;9.846;2022-09-09T00:16:55;249.38;;;54.13;;
20639;SDS011;10479;53.524;9.846;2022-09-09T00:19:24;387.08;;;66.80;;
20639;SDS011;10479;53.524;9.846;2022-09-09T00:24:43;247.15;;;51.58;;
20639;SDS011;10479;53.524;9.846;2022-09-09T00:32:41;173.48;;;48.33;;
20639;SDS011;10479;53.524;9.846;2022-09-09T00:37:35;157.20;;;47.45;;
20639;SDS011;10479;53.524;9.846;2022-09-09T00:40:01;340.73;;;59.15;;
20639;SDS011;10479;53.524;9.846;2022-09-09T00:42:52;489.70;;;65.53;;
20639;SDS011;10479;53.524;9.846;2022-09-09T00:48:10;250.40;;;54.40;;
20639;SDS011;10479;53.524;9.846;2022-09-09T00:58:26;195.32;;;48.80;;
20639;SDS011;10479;53.524;9.846;2022-09-09T01:01:03;287.08;;;42.05;;
20639;SDS011;10479;53.524;9.846;2022-09-09T01:03:49;255.30;;;44.58;;
20639;SDS011;10479;53.524;9.846;2022-09-09T01:12:23;331.77;;;39.33;;
20639;SDS011;10479;53.524;9.846;2022-09-09T01:15:09;341.98;;;46.28;;
20639;SDS011;10479;53.524;9.846;2022-09-09T01:17:51;162.15;;;37.35;;
20639;SDS011;10479;53.524;9.846;2022-09-09T01:28:51;172.23;;;33.10;;
20639;SDS011;10479;53.524;9.846;2022-09-09T01:31:22;251.43;;;39.28;;
20639;SDS011;10479;53.524;9.846;2022-09-09T01:33:52;147.87;;;38.37;;
20639;SDS011;10479;53.524;9.846;2022-09-09T01:38:45;130.05;;;34.22;;
20639;SDS011;10479;53.524;9.846;2022-09-09T01:41:10;118.47;;;31.52;;
20639;SDS011;10479;53.524;9.846;2022-09-09T01:43:36;248.38;;;34.13;;
20639;SDS011;10479;53.524;9.846;2022-09-09T01:46:02;204.60;;;31.33;;
20639;SDS011;10479;53.524;9.846;2022-09-09T01:48:28;128.45;;;30.17;;
20639;SDS011;10479;53.524;9.846;2022-09-09T01:50:53;122.68;;;35.05;;
20639;SDS011;10479;53.524;9.846;2022-09-09T01:53:20;126.80;;;37.47;;
20639;SDS011;10479;53.524;9.846;2022-09-09T01:56:07;122.38;;;36.35;;
20639;SDS011;10479;53.524;9.846;2022-09-09T01:58:53;124.15;;;37.63;;
20639;SDS011;10479;53.524;9.846;2022-09-09T02:01:30;164.02;;;41.00;;
20639;SDS011;10479;53.524;9.846;2022-09-09T02:03:58;110.35;;;36.22;;
20639;SDS011;10479;53.524;9.846;2022-09-09T02:08:58;93.80;;;32.65;;
20639;SDS011;10479;53.524;9.846;2022-09-09T02:11:26;281.08;;;49.22;;
20639;SDS011;10479;53.524;9.846;2022-09-09T02:13:54;120.10;;;38.00;;
20639;SDS011;10479;53.524;9.846;2022-09-09T02:16:36;123.63;;;31.70;;
20639;SDS011;10479;53.524;9.846;2022-09-09T02:19:18;281.40;;;38.78;;
20639;SDS011;10479;53.524;9.846;2022-09-09T02:21:50;121.55;;;35.53;;
20639;SDS011;10479;53.524;9.846;2022-09-09T02:24:18;69.25;;;26.48;;
20639;SDS011;10479;53.524;9.846;2022-09-09T02:26:44;115.22;;;30.95;;
20639;SDS011;10479;53.524;9.846;2022-09-09T02:29:16;235.50;;;34.38;;
20639;SDS011;10479;53.524;9.846;2022-09-09T02:34:10;185.77;;;31.80;;
20639;SDS011;10479;53.524;9.846;2022-09-09T02:36:36;60.20;;;23.00;;
20639;SDS011;10479;53.524;9.846;2022-09-09T02:39:04;93.80;;;30.30;;
20639;SDS011;10479;53.524;9.846;2022-09-09T02:41:34;79.10;;;27.75;;
20639;SDS011;10479;53.524;9.846;2022-09-09T02:44:01;81.30;;;29.02;;
20639;SDS011;10479;53.524;9.846;2022-09-09T02:49:11;170.80;;;29.05;;
20639;SDS011;10479;53.524;9.846;2022-09-09T02:54:32;69.95;;;23.02;;
20639;SDS011;10479;53.524;9.846;2022-09-09T02:57:06;42.47;;;18.58;;
20639;SDS011;10479;53.524;9.846;2022-09-09T02:59:35;57.65;;;22.15;;
20639;SDS011;10479;53.524;9.846;2022-09-09T03:02:01;60.53;;;22.10;;
20639;SDS011;10479;53.524;9.846;2022-09-09T03:04:27;52.05;;;21.15;;
20639;SDS011;10479;53.524;9.846;2022-09-09T03:06:53;29.45;;;16.02;;
20639;SDS011;10479;53.524;9.846;2022-09-09T03:09:19;37.28;;;18.63;;
20639;SDS011;10479;53.524;9.846;2022-09-09T03:11:44;32.83;;;17.20;;
20639;SDS011;10479;53.524;9.846;2022-09-09T03:14:10;60.33;;;25.73;;
20639;SDS011;10479;53.524;9.846;2022-09-09T03:16:36;50.55;;;22.17;;
20639;SDS011;10479;53.524;9.846;2022-09-09T03:19:01;52.65;;;23.25;;
20639;SDS011;10479;53.524;9.846;2022-09-09T03:21:27;75.22;;;29.83;;
20639;SDS011;10479;53.524;9.846;2022-09-09T03:23:52;83.53;;;29.63;;
20639;SDS011;10479;53.524;9.846;2022-09-09T03:26:18;49.58;;;23.48;;
20639;SDS011;10479;53.524;9.846;2022-09-09T03:28:43;57.00;;;25.42;;
20639;SDS011;10479;53.524;9.846;2022-09-09T03:31:09;46.95;;;22.02;;
20639;SDS011;10479;53.524;9.846;2022-09-09T03:33:37;56.20;;;23.35;;
20639;SDS011;10479;53.524;9.846;2022-09-09T03:36:03;69.63;;;28.58;;
20639;SDS011;10479;53.524;9.846;2022-09-09T03:38:29;62.03;;;26.38;;
20639;SDS011;10479;53.524;9.846;2022-09-09T03:40:55;51.65;;;23.48;;
20639;SDS011;10479;53.524;9.846;2022-09-09T03:43:22;81.38;;;28.23;;
20639;SDS011;10479;53.524;9.846;2022-09-09T03:45:49;48.90;;;23.42;;
20639;SDS011;10479;53.524;9.846;2022-09-09T03:48:14;74.80;;;29.33;;
20639;SDS011;10479;53.524;9.846;2022-09-09T03:50:45;55.88;;;23.35;;
20639;SDS011;10479;53.524;9.846;2022-09-09T03:53:11;34.97;;;18.48;;
20639;SDS011;10479;53.524;9.846;2022-09-09T03:55:36;59.97;;;27.15;;
20639;SDS011;10479;53.524;9.846;2022-09-09T03:58:02;63.83;;;27.17;;
20639;SDS011;10479;53.524;9.846;2022-09-09T04:00:27;44.60;;;21.13;;
20639;SDS011;10479;53.524;9.846;2022-09-09T04:02:53;47.30;;;21.77;;
20639;SDS011;10479;53.524;9.846;2022-09-09T04:05:20;33.25;;;15.65;;
20639;SDS011;10479;53.524;9.846;2022-09-09T04:07:46;17.67;;;10.40;;
20639;SDS011;10479;53.524;9.846;2022-09-09T04:10:11;48.03;;;20.30;;
20639;SDS011;10479;53.524;9.846;2022-09-09T04:12:36;29.17;;;15.15;;
20639;SDS011;10479;53.524;9.846;2022-09-09T04:15:02;41.58;;;19.27;;
20639;SDS011;10479;53.524;9.846;2022-09-09T04:17:27;40.47;;;20.45;;
20639;SDS011;10479;53.524;9.846;2022-09-09T04:19:53;48.10;;;23.50;;
20639;SDS011;10479;53.524;9.846;2022-09-09T04:22:18;48.40;;;24.08;;
20639;SDS011;10479;53.524;9.846;2022-09-09T04:24:43;44.67;;;22.30;;
20639;SDS011;10479;53.524;9.846;2022-09-09T04:27:09;39.95;;;23.20;;
20639;SDS011;10479;53.524;9.846;2022-09-09T04:29:34;38.83;;;21.27;;
20639;SDS011;10479;53.524;9.846;2022-09-09T04:32:00;33.03;;;18.88;;
20639;SDS011;10479;53.524;9.846;2022-09-09T04:34:25;44.50;;;22.33;;
20639;SDS011;10479;53.524;9.846;2022-09-09T04:36:51;40.72;;;21.50;;
20639;SDS011;10479;53.524;9.846;2022-09-09T04:39:17;39.72;;;20.20;;
20639;SDS011;10479;53.524;9.846;2022-09-09T04:41:42;38.22;;;19.30;;
20639;SDS011;10479;53.524;9.846;2022-09-09T04:44:07;54.47;;;21.95;;
20639;SDS011;10479;53.524;9.846;2022-09-09T04:46:33;38.30;;;19.85;;
20639;SDS011;10479;53.524;9.846;2022-09-09T04:48:59;44.08;;;21.63;;
20639;SDS011;10479;53.524;9.846;2022-09-09T04:51:25;42.80;;;22.55;;
20639;SDS011;10479;53.524;9.846;2022-09-09T04:53:50;43.47;;;21.30;;
20639;SDS011;10479;53.524;9.846;2022-09-09T04:56:16;56.08;;;24.60;;
20639;SDS011;10479;53.524;9.846;2022-09-09T04:58:43;59.17;;;25.88;;
20639;SDS011;10479;53.524;9.846;2022-09-09T05:01:09;52.17;;;22.85;;
20639;SDS011;10479;53.524;9.846;2022-09-09T05:03:39;48.03;;;22.02;;
20639;SDS011;10479;53.524;9.846;2022-09-09T05:06:09;60.03;;;25.00;;
20639;SDS011;10479;53.524;9.846;2022-09-09T05:08:39;49.55;;;22.67;;
20639;SDS011;10479;53.524;9.846;2022-09-09T05:13:52;45.35;;;22.05;;
20639;SDS011;10479;53.524;9.846;2022-09-09T05:16:18;72.68;;;26.60;;
20639;SDS011;10479;53.524;9.846;2022-09-09T05:18:45;53.10;;;22.13;;
20639;SDS011;10479;53.524;9.846;2022-09-09T05:21:11;38.60;;;20.38;;
20639;SDS011;10479;53.524;9.846;2022-09-09T05:23:39;34.53;;;18.13;;
20639;SDS011;10479;53.524;9.846;2022-09-09T05:26:05;39.05;;;19.25;;
20639;SDS011;10479;53.524;9.846;2022-09-09T05:28:31;39.25;;;19.85;;
20639;SDS011;10479;53.524;9.846;2022-09-09T05:31:00;43.33;;;20.50;;
20639;SDS011;10479;53.524;9.846;2022-09-09T05:33:30;38.10;;;18.10;;
20639;SDS011;10479;53.524;9.846;2022-09-09T05:35:59;41.85;;;19.08;;
20639;SDS011;10479;53.524;9.846;2022-09-09T05:40:54;37.53;;;18.77;;
20639;SDS011;10479;53.524;9.846;2022-09-09T05:43:22;39.60;;;19.23;;
20639;SDS011;10479;53.524;9.846;2022-09-09T05:45:48;33.25;;;16.77;;
20639;SDS011;10479;53.524;9.846;2022-09-09T05:48:23;23.65;;;12.63;;
20639;SDS011;10479;53.524;9.846;2022-09-09T05:50:52;19.88;;;10.88;;
20639;SDS011;10479;53.524;9.846;2022-09-09T05:53:18;24.13;;;11.60;;
20639;SDS011;10479;53.524;9.846;2022-09-09T05:55:43;23.35;;;11.88;;
20639;SDS011;10479;53.524;9.846;2022-09-09T05:58:10;18.75;;;9.32;;
20639;SDS011;10479;53.524;9.846;2022-09-09T06:00:36;16.73;;;8.35;;
20639;SDS011;10479;53.524;9.846;2022-09-09T06:03:02;17.90;;;8.15;;
20639;SDS011;10479;53.524;9.846;2022-09-09T06:05:28;16.73;;;8.32;;
20639;SDS011;10479;53.524;9.846;2022-09-09T06:07:55;18.92;;;9.25;;
20639;SDS011;10479;53.524;9.846;2022-09-09T06:10:20;19.13;;;7.93;;
20639;SDS011;10479;53.524;9.846;2022-09-09T06:12:46;15.40;;;7.95;;
20639;SDS011;10479;53.524;9.846;2022-09-09T06:15:11;15.07;;;8.25;;
20639;SDS011;10479;53.524;9.846;2022-09-09T06:17:37;16.58;;;7.80;;
20639;SDS011;10479;53.524;9.846;2022-09-09T06:20:04;16.80;;;8.02;;
20639;SDS011;10479;53.524;9.846;2022-09-09T06:22:30;16.27;;;7.15;;
20639;SDS011;10479;53.524;9.846;2022-09-09T06:24:55;14.20;;;7.97;;
20639;SDS011;10479;53.524;9.846;2022-09-09T06:27:20;15.55;;;7.45;;
20639;SDS011;10479;53.524;9.846;2022-09-09T06:29:46;15.82;;;7.30;;
20639;SDS011;10479;53.524;9.846;2022-09-09T06:32:11;16.13;;;8.90;;
20639;SDS011;10479;53.524;9.846;2022-09-09T06:34:36;16.23;;;8.15;;
20639;SDS011;10479;53.524;9.846;2022-09-09T06:37:02;13.65;;;6.95;;
20639;SDS011;10479;53.524;9.846;2022-09-09T06:39:27;14.13;;;7.40;;
20639;SDS011;10479;53.524;9.846;2022-09-09T06:41:53;17.02;;;7.72;;
20639;SDS011;10479;53.524;9.846;2022-09-09T06:44:18;15.43;;;7.80;;
20639;SDS011;10479;53.524;9.846;2022-09-09T06:46:44;13.82;;;7.30;;
20639;SDS011;10479;53.524;9.846;2022-09-09T06:49:12;12.70;;;6.65;;
20639;SDS011;10479;53.524;9.846;2022-09-09T06:51:38;15.90;;;7.22;;
20639;SDS011;10479;53.524;9.846;2022-09-09T06:54:07;13.77;;;6.75;;
20639;SDS011;10479;53.524;9.846;2022-09-09T06:56:35;12.52;;;6.15;;
20639;SDS011;10479;53.524;9.846;2022-09-09T06:59:05;10.68;;;6.32;;
20639;SDS011;10479;53.524;9.846;2022-09-09T07:01:34;15.27;;;6.97;;
20639;SDS011;10479;53.524;9.846;2022-09-09T07:04:01;13.52;;;6.30;;
20639;SDS011;10479;53.524;9.846;2022-09-09T07:06:32;12.82;;;6.35;;
20639;SDS011;10479;53.524;9.846;2022-09-09T07:09:06;15.35;;;6.60;;
20639;SDS011;10479;53.524;9.846;2022-09-09T07:11:40;10.32;;;5.90;;
20639;SDS011;10479;53.524;9.846;2022-09-09T07:14:07;12.18;;;6.57;;
20639;SDS011;10479;53.524;9.846;2022-09-09T07:16:33;12.07;;;6.13;;
20639;SDS011;10479;53.524;9.846;2022-09-09T07:19:02;14.82;;;6.30;;
20639;SDS011;10479;53.524;9.846;2022-09-09T07:21:29;11.82;;;5.97;;
20639;SDS011;10479;53.524;9.846;2022-09-09T07:24:04;9.57;;;5.50;;
20639;SDS011;10479;53.524;9.846;2022-09-09T07:26:33;13.10;;;5.82;;
20639;SDS011;10479;53.524;9.846;2022-09-09T07:28:59;12.80;;;6.05;;
20639;SDS011;10479;53.524;9.846;2022-09-09T07:31:30;9.07;;;5.57;;
20639;SDS011;10479;53.524;9.846;2022-09-09T07:33:58;12.77;;;5.38;;
20639;SDS011;10479;53.524;9.846;2022-09-09T07:36:27;13.40;;;5.45;;
20639;SDS011;10479;53.524;9.846;2022-09-09T07:38:58;11.35;;;5.20;;
20639;SDS011;10479;53.524;9.846;2022-09-09T07:41:31;11.40;;;5.63;;
20639;SDS011;10479;53.524;9.846;2022-09-09T07:44:06;11.10;;;5.20;;
20639;SDS011;10479;53.524;9.846;2022-09-09T07:46:37;9.65;;;5.53;;
20639;SDS011;10479;53.524;9.846;2022-09-09T07:49:05;11.68;;;4.90;;
20639;SDS011;10479;53.524;9.846;2022-09-09T07:51:33;9.25;;;4.90;;
20639;SDS011;10479;53.524;9.846;2022-09-09T07:54:04;8.85;;;5.13;;
20639;SDS011;10479;53.524;9.846;2022-09-09T07:56:36;10.35;;;5.40;;
20639;SDS011;10479;53.524;9.846;2022-09-09T07:59:03;8.55;;;4.25;;
20639;SDS011;10479;53.524;9.846;2022-09-09T08:01:34;8.52;;;4.63;;
20639;SDS011;10479;53.524;9.846;2022-09-09T08:04:04;9.60;;;4.13;;
20639;SDS011;10479;53.524;9.846;2022-09-09T08:06:42;6.53;;;3.80;;
20639;SDS011;10479;53.524;9.846;2022-09-09T08:09:16;11.20;;;4.40;;
20639;SDS011;10479;53.524;9.846;2022-09-09T08:11:42;8.48;;;4.40;;
20639;SDS011;10479;53.524;9.846;2022-09-09T08:14:08;10.20;;;3.92;;
20639;SDS011;10479;53.524;9.846;2022-09-09T08:16:38;9.13;;;4.20;;
20639;SDS011;10479;53.524;9.846;2022-09-09T08:19:06;10.75;;;4.88;;
20639;SDS011;10479;53.524;9.846;2022-09-09T08:21:35;10.13;;;4.13;;
20639;SDS011;10479;53.524;9.846;2022-09-09T08:24:03;9.23;;;4.65;;
20639;SDS011;10479;53.524;9.846;2022-09-09T08:26:32;11.25;;;4.18;;
20639;SDS011;10479;53.524;9.846;2022-09-09T08:29:00;9.20;;;4.10;;
20639;SDS011;10479;53.524;9.846;2022-09-09T08:33:58;7.78;;;3.30;;
20639;SDS011;10479;53.524;9.846;2022-09-09T08:36:26;9.80;;;3.13;;
20639;SDS011;10479;53.524;9.846;2022-09-09T08:38:53;9.25;;;3.95;;
20639;SDS011;10479;53.524;9.846;2022-09-09T08:41:29;7.18;;;3.30;;
20639;SDS011;10479;53.524;9.846;2022-09-09T08:52:44;7.88;;;2.92;;
20639;SDS011;10479;53.524;9.846;2022-09-09T08:56:14;7.63;;;2.63;;
20639;SDS011;10479;53.524;9.846;2022-09-09T08:58:24;6.13;;;2.42;;
20639;SDS011;10479;53.524;9.846;2022-09-09T09:09:01;6.30;;;1.92;;
20639;SDS011;10479;53.524;9.846;2022-09-09T09:11:39;4.45;;;1.70;;
20639;SDS011;10479;53.524;9.846;2022-09-09T09:19:19;6.00;;;1.60;;
20639;SDS011;10479;53.524;9.846;2022-09-09T09:21:50;4.82;;;1.40;;
20639;SDS011;10479;53.524;9.846;2022-09-09T09:24:27;4.30;;;1.63;;
20639;SDS011;10479;53.524;9.846;2022-09-09T09:26:57;5.72;;;1.42;;
20639;SDS011;10479;53.524;9.846;2022-09-09T09:29:23;4.57;;;1.10;;
20639;SDS011;10479;53.524;9.846;2022-09-09T09:31:53;4.28;;;1.40;;
20639;SDS011;10479;53.524;9.846;2022-09-09T09:34:20;5.63;;;1.30;;
20639;SDS011;10479;53.524;9.846;2022-09-09T09:36:52;5.78;;;1.40;;
20639;SDS011;10479;53.524;9.846;2022-09-09T09:39:22;4.22;;;1.23;;
20639;SDS011;10479;53.524;9.846;2022-09-09T09:41:52;6.15;;;1.30;;
20639;SDS011;10479;53.524;9.846;2022-09-09T09:44:26;4.25;;;0.90;;
20639;SDS011;10479;53.524;9.846;2022-09-09T09:47:05;5.82;;;0.90;;
20639;SDS011;10479;53.524;9.846;2022-09-09T09:49:34;5.65;;;1.70;;
20639;SDS011;10479;53.524;9.846;2022-09-09T09:52:03;2.55;;;0.70;;
20639;SDS011;10479;53.524;9.846;2022-09-09T09:54:30;4.47;;;1.30;;
20639;SDS011;10479;53.524;9.846;2022-09-09T09:57:11;3.58;;;1.13;;
20639;SDS011;10479;53.524;9.846;2022-09-09T09:59:37;6.55;;;1.30;;
20639;SDS011;10479;53.524;9.846;2022-09-09T10:02:23;3.33;;;1.17;;
20639;SDS011;10479;53.524;9.846;2022-09-09T10:05:03;3.90;;;0.98;;
20639;SDS011;10479;53.524;9.846;2022-09-09T10:07:30;4.93;;;1.15;;
20639;SDS011;10479;53.524;9.846;2022-09-09T10:09:58;5.13;;;1.08;;
20639;SDS011;10479;53.524;9.846;2022-09-09T10:29:07;2.05;;;0.77;;
20639;SDS011;10479;53.524;9.846;2022-09-09T10:37:36;3.38;;;0.60;;
20639;SDS011;10479;53.524;9.846;2022-09-09T10:40:50;2.95;;;0.80;;
20639;SDS011;10479;53.524;9.846;2022-09-09T10:43:01;2.10;;;0.80;;
20639;SDS011;10479;53.524;9.846;2022-09-09T10:45:49;3.40;;;0.80;;
20639;SDS011;10479;53.524;9.846;2022-09-09T10:53:26;3.13;;;0.90;;
20639;SDS011;10479;53.524;9.846;2022-09-09T10:56:05;3.07;;;0.80;;
20639;SDS011;10479;53.524;9.846;2022-09-09T10:58:38;3.70;;;0.90;;
20639;SDS011;10479;53.524;9.846;2022-09-09T11:01:15;4.05;;;0.95;;
20639;SDS011;10479;53.524;9.846;2022-09-09T11:04:12;3.22;;;0.80;;
20639;SDS011;10479;53.524;9.846;2022-09-09T11:06:42;4.57;;;1.20;;
20639;SDS011;10479;53.524;9.846;2022-09-09T11:09:15;2.63;;;1.02;;
20639;SDS011;10479;53.524;9.846;2022-09-09T11:11:51;3.53;;;1.20;;
20639;SDS011;10479;53.524;9.846;2022-09-09T11:16:57;3.45;;;1.00;;
20639;SDS011;10479;53.524;9.846;2022-09-09T11:19:36;4.43;;;1.13;;
20639;SDS011;10479;53.524;9.846;2022-09-09T11:22:06;3.15;;;1.00;;
20639;SDS011;10479;53.524;9.846;2022-09-09T11:25:05;5.53;;;1.13;;
20639;SDS011;10479;53.524;9.846;2022-09-09T11:27:44;3.53;;;1.10;;
20639;SDS011;10479;53.524;9.846;2022-09-09T11:30:30;3.15;;;0.68;;
20639;SDS011;10479;53.524;9.846;2022-09-09T11:40:56;4.15;;;1.00;;
20639;SDS011;10479;53.524;9.846;2022-09-09T11:43:32;5.93;;;1.05;;
20639;SDS011;10479;53.524;9.846;2022-09-09T11:46:03;4.05;;;1.27;;
20639;SDS011;10479;53.524;9.846;2022-09-09T11:48:38;6.00;;;1.27;;
20639;SDS011;10479;53.524;9.846;2022-09-09T11:53:49;3.17;;;1.00;;
20639;SDS011;10479;53.524;9.846;2022-09-09T11:57:01;6.30;;;1.38;;
20639;SDS011;10479;53.524;9.846;2022-09-09T11:59:20;5.40;;;1.60;;
20639;SDS011;10479;53.524;9.846;2022-09-09T12:01:54;6.10;;;1.42;;
20639;SDS011;10479;53.524;9.846;2022-09-09T12:09:24;10.18;;;1.52;;
20639;SDS011;10479;53.524;9.846;2022-09-09T12:11:52;5.63;;;1.20;;
20639;SDS011;10479;53.524;9.846;2022-09-09T12:14:37;4.60;;;0.90;;
20639;SDS011;10479;53.524;9.846;2022-09-09T12:17:10;6.57;;;1.15;;
20639;SDS011;10479;53.524;9.846;2022-09-09T12:19:38;3.97;;;1.25;;
20639;SDS011;10479;53.524;9.846;2022-09-09T12:22:07;2.55;;;0.80;;
20639;SDS011;10479;53.524;9.846;2022-09-09T12:24:54;3.38;;;1.00;;
20639;SDS011;10479;53.524;9.846;2022-09-09T12:27:34;6.20;;;1.30;;
20639;SDS011;10479;53.524;9.846;2022-09-09T12:30:07;5.10;;;0.90;;
20639;SDS011;10479;53.524;9.846;2022-09-09T12:32:35;3.55;;;1.23;;
20639;SDS011;10479;53.524;9.846;2022-09-09T12:35:04;4.20;;;1.27;;
20639;SDS011;10479;53.524;9.846;2022-09-09T12:37:36;8.40;;;1.55;;
20639;SDS011;10479;53.524;9.846;2022-09-09T12:42:53;5.88;;;1.00;;
20639;SDS011;10479;53.524;9.846;2022-09-09T12:47:57;7.32;;;1.25;;
20639;SDS011;10479;53.524;9.846;2022-09-09T12:50:38;5.55;;;1.30;;
20639;SDS011;10479;53.524;9.846;2022-09-09T12:53:11;6.20;;;1.08;;
20639;SDS011;10479;53.524;9.846;2022-09-09T12:55:41;5.05;;;1.10;;
20639;SDS011;10479;53.524;9.846;2022-09-09T12:58:20;5.20;;;0.88;;
20639;SDS011;10479;53.524;9.846;2022-09-09T13:00:49;4.72;;;1.25;;
20639;SDS011;10479;53.524;9.846;2022-09-09T13:03:20;6.85;;;1.40;;
20639;SDS011;10479;53.524;9.846;2022-09-09T13:05:46;5.60;;;1.10;;
20639;SDS011;10479;53.524;9.846;2022-09-09T13:08:13;5.22;;;1.60;;
20639;SDS011;10479;53.524;9.846;2022-09-09T13:13:05;5.72;;;1.80;;
20639;SDS011;10479;53.524;9.846;2022-09-09T13:15:39;7.70;;;1.45;;
20639;SDS011;10479;53.524;9.846;2022-09-09T13:18:05;4.32;;;1.05;;
20639;SDS011;10479;53.524;9.846;2022-09-09T13:20:33;2.78;;;0.60;;
20639;SDS011;10479;53.524;9.846;2022-09-09T13:22:58;2.85;;;0.50;;
20639;SDS011;10479;53.524;9.846;2022-09-09T13:25:25;1.60;;;0.60;;
20639;SDS011;10479;53.524;9.846;2022-09-09T13:27:55;3.08;;;0.75;;
20639;SDS011;10479;53.524;9.846;2022-09-09T13:35:45;4.25;;;0.70;;
20639;SDS011;10479;53.524;9.846;2022-09-09T13:38:17;3.13;;;0.70;;
20639;SDS011;10479;53.524;9.846;2022-09-09T13:40:56;5.93;;;0.80;;
20639;SDS011;10479;53.524;9.846;2022-09-09T13:43:23;6.15;;;1.00;;
20639;SDS011;10479;53.524;9.846;2022-09-09T13:45:57;7.18;;;1.73;;
20639;SDS011;10479;53.524;9.846;2022-09-09T13:48:24;4.60;;;1.20;;
20639;SDS011;10479;53.524;9.846;2022-09-09T13:50:57;7.13;;;1.65;;
20639;SDS011;10479;53.524;9.846;2022-09-09T13:53:30;6.63;;;1.85;;
20639;SDS011;10479;53.524;9.846;2022-09-09T13:55:55;12.43;;;2.35;;
20639;SDS011;10479;53.524;9.846;2022-09-09T13:58:22;7.40;;;2.70;;
20639;SDS011;10479;53.524;9.846;2022-09-09T14:00:48;10.10;;;2.65;;
20639;SDS011;10479;53.524;9.846;2022-09-09T14:03:14;4.78;;;2.00;;
20639;SDS011;10479;53.524;9.846;2022-09-09T14:05:40;7.70;;;2.50;;
20639;SDS011;10479;53.524;9.846;2022-09-09T14:08:07;8.35;;;2.50;;
20639;SDS011;10479;53.524;9.846;2022-09-09T14:10:46;4.72;;;2.40;;
20639;SDS011;10479;53.524;9.846;2022-09-09T14:13:12;6.53;;;3.03;;
20639;SDS011;10479;53.524;9.846;2022-09-09T14:15:37;6.55;;;2.58;;
20639;SDS011;10479;53.524;9.846;2022-09-09T14:18:03;6.20;;;2.47;;
20639;SDS011;10479;53.524;9.846;2022-09-09T14:20:29;8.60;;;3.00;;
20639;SDS011;10479;53.524;9.846;2022-09-09T14:22:54;7.38;;;2.70;;
20639;SDS011;10479;53.524;9.846;2022-09-09T14:25:19;8.82;;;3.70;;
20639;SDS011;10479;53.524;9.846;2022-09-09T14:27:45;7.88;;;3.13;;
20639;SDS011;10479;53.524;9.846;2022-09-09T14:30:11;9.00;;;3.33;;
20639;SDS011;10479;53.524;9.846;2022-09-09T14:32:38;8.27;;;3.53;;
20639;SDS011;10479;53.524;9.846;2022-09-09T14:35:03;10.65;;;3.70;;
20639;SDS011;10479;53.524;9.846;2022-09-09T14:37:29;10.10;;;3.38;;
20639;SDS011;10479;53.524;9.846;2022-09-09T14:39:56;7.72;;;3.45;;
20639;SDS011;10479;53.524;9.846;2022-09-09T14:42:21;9.68;;;3.70;;
20639;SDS011;10479;53.524;9.846;2022-09-09T14:44:47;8.43;;;3.00;;
20639;SDS011;10479;53.524;9.846;2022-09-09T14:47:12;8.07;;;3.85;;
20639;SDS011;10479;53.524;9.846;2022-09-09T14:49:38;7.00;;;3.63;;
20639;SDS011;10479;53.524;9.846;2022-09-09T14:52:04;12.48;;;4.00;;
20639;SDS011;10479;53.524;9.846;2022-09-09T14:54:30;9.32;;;3.50;;
20639;SDS011;10479;53.524;9.846;2022-09-09T14:56:58;8.48;;;3.63;;
20639;SDS011;10479;53.524;9.846;2022-09-09T14:59:23;5.97;;;3.35;;
20639;SDS011;10479;53.524;9.846;2022-09-09T15:01:49;8.40;;;3.88;;
20639;SDS011;10479;53.524;9.846;2022-09-09T15:04:15;10.05;;;4.80;;
20639;SDS011;10479;53.524;9.846;2022-09-09T15:06:41;8.57;;;5.38;;
20639;SDS011;10479;53.524;9.846;2022-09-09T15:09:09;7.15;;;4.20;;
20639;SDS011;10479;53.524;9.846;2022-09-09T15:11:36;10.20;;;4.18;;
20639;SDS011;10479;53.524;9.846;2022-09-09T15:14:05;9.43;;;5.30;;
20639;SDS011;10479;53.524;9.846;2022-09-09T15:16:33;9.15;;;4.10;;
20639;SDS011;10479;53.524;9.846;2022-09-09T15:18:59;8.45;;;3.63;;
20639;SDS011;10479;53.524;9.846;2022-09-09T15:21:27;9.77;;;5.60;;
20639;SDS011;10479;53.524;9.846;2022-09-09T15:23:57;7.90;;;4.10;;
20639;SDS011;10479;53.524;9.846;2022-09-09T15:26:24;10.48;;;3.22;;
20639;SDS011;10479;53.524;9.846;2022-09-09T15:28:51;8.93;;;3.42;;
20639;SDS011;10479;53.524;9.846;2022-09-09T15:31:21;8.70;;;3.60;;
20639;SDS011;10479;53.524;9.846;2022-09-09T15:36:27;6.68;;;2.33;;
20639;SDS011;10479;53.524;9.846;2022-09-09T15:38:57;5.82;;;2.65;;
20639;SDS011;10479;53.524;9.846;2022-09-09T15:41:23;5.65;;;2.90;;
20639;SDS011;10479;53.524;9.846;2022-09-09T15:43:50;6.90;;;2.58;;
20639;SDS011;10479;53.524;9.846;2022-09-09T15:48:42;5.68;;;2.28;;
20639;SDS011;10479;53.524;9.846;2022-09-09T15:51:09;6.32;;;2.40;;
20639;SDS011;10479;53.524;9.846;2022-09-09T15:53:35;6.05;;;2.17;;
20639;SDS011;10479;53.524;9.846;2022-09-09T15:56:02;6.30;;;2.45;;
20639;SDS011;10479;53.524;9.846;2022-09-09T15:58:29;6.30;;;2.50;;
20639;SDS011;10479;53.524;9.846;2022-09-09T16:01:01;5.82;;;1.70;;
20639;SDS011;10479;53.524;9.846;2022-09-09T16:03:34;8.63;;;1.90;;
20639;SDS011;10479;53.524;9.846;2022-09-09T16:06:03;4.05;;;1.65;;
20639;SDS011;10479;53.524;9.846;2022-09-09T16:08:33;4.60;;;1.70;;
20639;SDS011;10479;53.524;9.846;2022-09-09T16:11:05;4.63;;;1.92;;
20639;SDS011;10479;53.524;9.846;2022-09-09T16:13:44;5.75;;;1.20;;
20639;SDS011;10479;53.524;9.846;2022-09-09T16:16:12;5.60;;;1.52;;
20639;SDS011;10479;53.524;9.846;2022-09-09T16:18:40;3.80;;;1.13;;
20639;SDS011;10479;53.524;9.846;2022-09-09T16:21:07;4.00;;;0.95;;
20639;SDS011;10479;53.524;9.846;2022-09-09T16:23:33;3.55;;;1.20;;
20639;SDS011;10479;53.524;9.846;2022-09-09T16:25:59;2.60;;;1.13;;
20639;SDS011;10479;53.524;9.846;2022-09-09T16:28:25;5.18;;;1.40;;
20639;SDS011;10479;53.524;9.846;2022-09-09T16:30:51;6.00;;;1.20;;
20639;SDS011;10479;53.524;9.846;2022-09-09T16:33:17;5.22;;;1.35;;
20639;SDS011;10479;53.524;9.846;2022-09-09T16:35:43;2.38;;;0.90;;
20639;SDS011;10479;53.524;9.846;2022-09-09T16:38:09;12.75;;;1.30;;
20639;SDS011;10479;53.524;9.846;2022-09-09T16:40:35;3.92;;;0.80;;
20639;SDS011;10479;53.524;9.846;2022-09-09T16:43:01;3.60;;;0.90;;
20639;SDS011;10479;53.524;9.846;2022-09-09T16:45:27;3.92;;;1.08;;
20639;SDS011;10479;53.524;9.846;2022-09-09T16:47:52;1.73;;;0.80;;
20639;SDS011;10479;53.524;9.846;2022-09-09T16:50:18;2.22;;;0.70;;
20639;SDS011;10479;53.524;9.846;2022-09-09T16:52:44;3.55;;;0.88;;
20639;SDS011;10479;53.524;9.846;2022-09-09T16:55:09;3.42;;;0.90;;
20639;SDS011;10479;53.524;9.846;2022-09-09T16:57:34;2.28;;;1.00;;
20639;SDS011;10479;53.524;9.846;2022-09-09T17:00:00;3.25;;;0.93;;
20639;SDS011;10479;53.524;9.846;2022-09-09T17:02:29;2.33;;;0.65;;
20639;SDS011;10479;53.524;9.846;2022-09-09T17:04:55;3.42;;;0.90;;
20639;SDS011;10479;53.524;9.846;2022-09-09T17:07:20;3.03;;;1.00;;
20639;SDS011;10479;53.524;9.846;2022-09-09T17:09:47;3.33;;;1.00;;
20639;SDS011;10479;53.524;9.846;2022-09-09T17:12:13;2.47;;;0.98;;
20639;SDS011;10479;53.524;9.846;2022-09-09T17:14:38;2.90;;;1.00;;
20639;SDS011;10479;53.524;9.846;2022-09-09T17:17:04;4.45;;;1.25;;
20639;SDS011;10479;53.524;9.846;2022-09-09T17:19:29;3.33;;;1.08;;
20639;SDS011;10479;53.524;9.846;2022-09-09T17:21:55;4.95;;;1.20;;
20639;SDS011;10479;53.524;9.846;2022-09-09T17:24:24;2.13;;;1.10;;